createdAt,value
2023-02-24T00:04:13.674Z,24.50
2023-02-24T00:09:16.604Z,24.50
2023-02-24T00:14:19.460Z,24.70
2023-02-24T00:19:23.452Z,24.60
2023-02-24T00:24:26.380Z,24.20
2023-02-24T00:29:29.275Z,24.70
2023-02-24T00:34:33.476Z,24.70
2023-02-24T00:39:36.114Z,24.70
2023-02-24T00:44:40.487Z,24.80
2023-02-24T00:49:43.365Z,24.70
2023-02-24T00:54:46.457Z,24.70
2023-02-24T00:59:51.249Z,24.60
2023-02-24T01:04:53.301Z,24.50
2023-02-24T01:09:55.313Z,24.30
2023-02-24T01:14:58.179Z,24.00
2023-02-24T01:20:00.852Z,24.10
2023-02-24T01:25:03.800Z,24.50
2023-02-24T01:30:08.873Z,24.10
2023-02-24T01:35:12.008Z,24.60
2023-02-24T01:40:20.818Z,24.60
2023-02-24T01:45:25.012Z,24.70
2023-02-24T01:55:32.798Z,24.70
2023-02-24T02:00:38.145Z,24.60
2023-02-24T02:05:41.165Z,24.80
2023-02-24T02:10:44.321Z,24.90
2023-02-24T02:15:52.814Z,25.20
2023-02-24T02:21:15.264Z,25.30
2023-02-24T02:26:36.146Z,25.60
2023-02-24T02:31:39.307Z,25.50
2023-02-24T02:37:00.018Z,25.70
2023-02-24T02:42:14.859Z,25.70
2023-02-24T02:47:23.120Z,25.90
2023-02-24T02:52:29.324Z,25.70
2023-02-24T02:57:31.906Z,25.60
2023-02-24T03:02:38.128Z,25.70
2023-02-24T03:07:42.903Z,25.60
2023-02-24T03:12:46.992Z,25.70
2023-02-24T03:17:55.891Z,25.70
2023-02-24T03:22:58.051Z,25.60
2023-02-24T03:28:03.811Z,25.60
2023-02-24T03:33:29.823Z,25.80
2023-02-24T03:38:33.047Z,25.70
2023-02-24T03:43:36.497Z,25.50
2023-02-24T03:48:43.595Z,25.70
2023-02-24T03:53:56.050Z,25.60
2023-02-24T03:59:03.710Z,25.30
2023-02-24T04:04:14.745Z,25.60
2023-02-24T04:09:26.901Z,25.50
2023-02-24T04:14:34.973Z,25.60
2023-02-24T04:19:41.043Z,25.90
2023-02-24T04:24:46.710Z,25.50
2023-02-24T04:29:54.231Z,25.60
2023-02-24T04:35:04.287Z,25.60
2023-02-24T04:40:12.125Z,25.30
2023-02-24T04:45:33.478Z,25.80
2023-02-24T04:50:36.803Z,25.30
2023-02-24T04:55:40.945Z,25.80
2023-02-24T05:00:43.002Z,25.60
2023-02-24T05:05:59.802Z,25.80
2023-02-24T05:11:04.828Z,25.70
2023-02-24T05:16:08.342Z,25.90
2023-02-24T05:21:30.636Z,25.80
2023-02-24T05:26:35.705Z,25.40
2023-02-24T05:31:38.371Z,25.70
2023-02-24T05:36:40.776Z,25.80
2023-02-24T05:41:43.236Z,25.90
2023-02-24T05:46:46.499Z,25.80
2023-02-24T05:51:55.261Z,25.80
2023-02-24T05:57:01.613Z,25.90
2023-02-24T06:02:07.108Z,25.90
2023-02-24T06:07:13.663Z,25.70
2023-02-24T06:12:16.487Z,25.70
2023-02-24T06:17:19.025Z,26.10
2023-02-24T06:22:23.272Z,25.90
2023-02-24T06:27:25.742Z,25.90
2023-02-24T06:32:28.250Z,26.00
2023-02-24T06:37:30.447Z,25.90
2023-02-24T06:42:32.911Z,26.10
2023-02-24T06:47:35.326Z,25.90
2023-02-24T06:52:37.433Z,26.20
2023-02-24T06:57:39.379Z,26.20
2023-02-24T07:02:41.354Z,26.40
2023-02-24T07:07:45.873Z,26.30
2023-02-24T07:12:47.896Z,26.30
2023-02-24T07:17:50.756Z,26.00
2023-02-24T07:22:52.852Z,26.30
2023-02-24T07:27:54.821Z,26.10
2023-02-24T07:32:57.168Z,26.40
2023-02-24T07:38:03.882Z,26.20
2023-02-24T07:43:06.381Z,26.60
2023-02-24T07:48:10.875Z,26.30
2023-02-24T07:53:12.937Z,26.20
2023-02-24T07:58:14.895Z,26.50
2023-02-24T08:03:17.045Z,26.50
2023-02-24T08:08:20.971Z,26.30
2023-02-24T08:13:23.944Z,26.30
2023-02-24T08:18:28.426Z,26.30
2023-02-24T08:23:34.489Z,26.40
2023-02-24T08:28:39.307Z,26.20
2023-02-24T08:33:41.287Z,25.90
2023-02-24T08:38:50.558Z,26.20
2023-02-24T08:43:52.629Z,26.00
2023-02-24T08:48:56.303Z,25.90
2023-02-24T08:54:00.147Z,25.80
2023-02-24T08:59:06.964Z,25.80
2023-02-24T09:04:10.934Z,25.50
2023-02-24T09:09:32.304Z,25.10
2023-02-24T09:14:37.234Z,25.50
2023-02-24T09:19:51.453Z,24.60
2023-02-24T09:25:13.447Z,24.60
2023-02-24T09:30:35.607Z,24.50
2023-02-24T09:35:41.818Z,24.00
2023-02-24T09:40:51.969Z,23.50
2023-02-24T09:45:58.289Z,23.30
2023-02-24T09:51:06.593Z,23.00
2023-02-24T09:56:15.997Z,22.60
2023-02-24T10:01:36.914Z,22.60
2023-02-24T10:06:41.121Z,22.30
2023-02-24T10:11:53.535Z,22.10
2023-02-24T10:17:21.078Z,21.50
2023-02-24T10:22:50.457Z,21.20
2023-02-24T10:27:58.199Z,21.00
2023-02-24T10:33:02.817Z,20.70
2023-02-24T10:38:07.636Z,21.00
2023-02-24T10:43:17.566Z,20.60
2023-02-24T10:48:40.763Z,20.60
2023-02-24T10:53:52.998Z,20.30
2023-02-24T10:59:32.449Z,19.80
2023-02-24T11:04:57.121Z,20.00
2023-02-24T11:10:11.512Z,20.00
2023-02-24T11:15:44.519Z,19.80
2023-02-24T11:20:55.463Z,19.40
2023-02-24T11:26:20.535Z,19.30
2023-02-24T11:31:23.239Z,19.00
2023-02-24T11:36:33.139Z,18.70
2023-02-24T11:41:38.857Z,18.40
2023-02-24T11:46:44.267Z,18.20
2023-02-24T11:51:46.589Z,18.40
2023-02-24T11:56:54.251Z,18.50
2023-02-24T12:01:59.343Z,18.20
2023-02-24T12:07:18.685Z,17.60
2023-02-24T12:12:23.352Z,17.30
2023-02-24T12:17:40.743Z,17.50
2023-02-24T12:27:57.045Z,16.00
2023-02-24T12:33:05.113Z,15.50
2023-02-24T12:38:07.518Z,15.20
2023-02-24T12:43:18.402Z,14.80
2023-02-24T12:48:35.757Z,15.10
2023-02-24T12:53:41.538Z,14.20
2023-02-24T12:58:45.533Z,14.00
2023-02-24T13:03:56.725Z,13.20
2023-02-24T13:09:07.087Z,13.30
2023-02-24T13:14:16.973Z,12.60
2023-02-24T13:19:28.488Z,12.40
2023-02-24T13:24:30.872Z,12.30
2023-02-24T13:29:43.195Z,11.80
2023-02-24T13:34:45.229Z,11.30
2023-02-24T13:39:47.308Z,10.60
2023-02-24T13:44:53.902Z,10.60
2023-02-24T13:50:01.685Z,10.40
2023-02-24T13:55:39.836Z,10.60
2023-02-24T14:00:55.565Z,10.10
2023-02-24T14:05:59.156Z,9.70
2023-02-24T14:11:03.836Z,9.80
2023-02-24T14:16:11.869Z,9.70
2023-02-24T14:21:25.114Z,9.80
2023-02-24T14:26:28.053Z,9.60
2023-02-24T14:31:30.382Z,8.80
2023-02-24T14:36:42.219Z,8.90
2023-02-24T14:41:44.557Z,8.60
2023-02-24T14:46:47.715Z,8.10
2023-02-24T14:51:51.923Z,8.60
2023-02-24T14:56:54.084Z,8.20
2023-02-24T15:01:56.931Z,7.90
2023-02-24T15:07:01.170Z,7.90
2023-02-24T15:12:19.167Z,7.50
2023-02-24T15:17:22.165Z,7.20
2023-02-24T15:22:30.551Z,7.60
2023-02-24T15:27:32.866Z,7.70
2023-02-24T15:32:37.681Z,8.00
2023-02-24T15:37:42.037Z,8.10
2023-02-24T15:42:49.767Z,8.00
2023-02-24T15:47:54.484Z,8.20
2023-02-24T15:52:58.221Z,8.30
2023-02-24T15:58:02.400Z,8.30
2023-02-24T16:03:04.786Z,8.20
2023-02-24T16:08:09.973Z,8.30
2023-02-24T16:13:16.601Z,8.50
2023-02-24T16:18:22.071Z,8.70
2023-02-24T16:23:25.752Z,8.30
2023-02-24T16:28:27.840Z,8.40
2023-02-24T16:33:30.150Z,8.30
2023-02-24T16:38:33.100Z,8.70
2023-02-24T16:43:37.490Z,9.30
2023-02-24T16:48:40.595Z,9.20
2023-02-24T16:53:42.692Z,9.50
2023-02-24T16:58:44.821Z,9.60
2023-02-24T17:03:48.743Z,10.30
2023-02-24T17:08:50.709Z,10.20
2023-02-24T17:13:53.386Z,10.40
2023-02-24T17:18:55.707Z,10.50
2023-02-24T17:23:57.968Z,10.70
2023-02-24T17:28:59.907Z,10.70
2023-02-24T17:34:01.913Z,11.10
2023-02-24T17:39:03.924Z,11.30
2023-02-24T17:44:05.985Z,11.60
2023-02-24T17:49:07.939Z,11.80
2023-02-24T17:54:10.029Z,12.10
2023-02-24T17:59:12.068Z,12.00
2023-02-24T18:04:14.686Z,12.10
2023-02-24T18:09:18.994Z,12.10
2023-02-24T18:14:21.129Z,12.50
2023-02-24T18:19:23.221Z,12.90
2023-02-24T18:24:25.643Z,12.50
2023-02-24T18:29:30.682Z,12.90
2023-02-24T18:34:32.706Z,12.70
2023-02-24T18:39:34.688Z,12.40
2023-02-24T18:44:36.677Z,12.40
2023-02-24T18:49:38.730Z,12.30
2023-02-24T18:54:40.742Z,11.90
2023-02-24T18:59:42.826Z,12.50
2023-02-24T19:04:45.874Z,12.40
2023-02-24T19:09:48.750Z,12.70
2023-02-24T19:14:52.304Z,12.90
2023-02-24T19:19:54.978Z,12.90
2023-02-24T19:24:56.978Z,13.10
2023-02-24T19:29:59.119Z,13.50
2023-02-24T19:35:02.178Z,13.60
2023-02-24T19:40:04.280Z,14.40
2023-02-24T19:45:06.690Z,14.90
2023-02-24T19:50:10.088Z,15.10
2023-02-24T19:55:12.187Z,15.40
2023-02-24T20:00:14.316Z,16.20
2023-02-24T20:05:16.581Z,16.50
2023-02-24T20:10:18.697Z,16.80
2023-02-24T20:15:20.887Z,17.20
2023-02-24T20:20:23.221Z,17.50
2023-02-24T20:25:25.204Z,17.60
2023-02-24T20:30:27.293Z,17.90
2023-02-24T20:35:29.341Z,18.10
2023-02-24T20:40:32.755Z,18.10
2023-02-24T20:45:36.425Z,18.70
2023-02-24T20:50:38.519Z,18.80
2023-02-24T20:55:40.540Z,18.90
2023-02-24T21:00:43.982Z,19.00
2023-02-24T21:05:45.975Z,19.20
2023-02-24T21:10:48.094Z,19.00
2023-02-24T21:15:53.568Z,19.20
2023-02-24T21:20:55.706Z,19.80
2023-02-24T21:25:57.775Z,19.90
2023-02-24T21:31:00.094Z,20.30
2023-02-24T21:36:07.618Z,20.20
2023-02-24T21:41:13.515Z,20.50
2023-02-24T21:46:18.058Z,20.50
2023-02-24T21:51:20.346Z,20.50
2023-02-24T21:56:24.290Z,20.30
2023-02-24T22:01:36.253Z,20.80
2023-02-24T22:06:39.221Z,20.70
2023-02-24T22:11:41.711Z,20.70
2023-02-24T22:16:44.237Z,21.00
2023-02-24T22:21:46.458Z,20.90
2023-02-24T22:26:48.512Z,21.00
2023-02-24T22:31:50.784Z,20.80
2023-02-24T22:36:53.576Z,20.50
2023-02-24T22:41:55.670Z,20.50
2023-02-24T22:46:57.714Z,21.00
2023-02-24T22:51:59.871Z,21.00
2023-02-24T22:57:01.868Z,20.90
2023-02-24T23:02:03.951Z,21.00
2023-02-24T23:07:06.088Z,20.90
2023-02-24T23:12:11.446Z,20.70
2023-02-24T23:17:13.805Z,20.50
2023-02-24T23:22:15.788Z,20.70
2023-02-24T23:27:17.740Z,20.60
2023-02-24T23:32:20.029Z,21.20
2023-02-24T23:37:22.104Z,21.30
2023-02-24T23:42:24.110Z,20.50
2023-02-24T23:47:26.125Z,21.30
2023-02-24T23:52:28.246Z,21.20
2023-02-24T23:57:30.384Z,21.00
